sensor_id;sensor_type;location;lat;lon;timestamp;temperature;humidity
48043;DHT22;33988;47.992;8.820;2024-01-30T00:00:08;9.20;51.30
48043;DHT22;33988;47.992;8.820;2024-01-30T00:02:36;9.20;51.30
48043;DHT22;33988;47.992;8.820;2024-01-30T00:05:03;9.20;51.30
48043;DHT22;33988;47.992;8.820;2024-01-30T00:07:30;9.20;51.30
48043;DHT22;33988;47.992;8.820;2024-01-30T00:09:57;9.20;51.30
48043;DHT22;33988;47.992;8.820;2024-01-30T00:12:26;9.10;51.20
48043;DHT22;33988;47.992;8.820;2024-01-30T00:14:53;9.10;51.30
48043;DHT22;33988;47.992;8.820;2024-01-30T00:17:21;9.10;51.30
48043;DHT22;33988;47.992;8.820;2024-01-30T00:19:48;9.10;51.30
48043;DHT22;33988;47.992;8.820;2024-01-30T00:22:17;9.10;51.30
48043;DHT22;33988;47.992;8.820;2024-01-30T00:24:44;9.10;51.40
48043;DHT22;33988;47.992;8.820;2024-01-30T00:27:11;9.10;51.40
48043;DHT22;33988;47.992;8.820;2024-01-30T00:29:41;9.10;52.10
48043;DHT22;33988;47.992;8.820;2024-01-30T00:32:08;9.10;51.40
48043;DHT22;33988;47.992;8.820;2024-01-30T00:34:35;9.10;51.40
48043;DHT22;33988;47.992;8.820;2024-01-30T00:37:05;9.10;51.40
48043;DHT22;33988;47.992;8.820;2024-01-30T00:39:34;9.00;51.40
48043;DHT22;33988;47.992;8.820;2024-01-30T00:42:02;9.00;51.40
48043;DHT22;33988;47.992;8.820;2024-01-30T00:44:31;9.00;51.30
48043;DHT22;33988;47.992;8.820;2024-01-30T00:47:01;9.00;51.40
48043;DHT22;33988;47.992;8.820;2024-01-30T00:49:28;9.00;51.40
48043;DHT22;33988;47.992;8.820;2024-01-30T00:51:55;9.00;51.40
48043;DHT22;33988;47.992;8.820;2024-01-30T00:54:25;9.00;51.40
48043;DHT22;33988;47.992;8.820;2024-01-30T00:56:51;9.00;51.40
48043;DHT22;33988;47.992;8.820;2024-01-30T00:59:18;9.00;51.40
48043;DHT22;33988;47.992;8.820;2024-01-30T01:01:45;8.90;51.30
48043;DHT22;33988;47.992;8.820;2024-01-30T01:04:15;9.00;51.30
48043;DHT22;33988;47.992;8.820;2024-01-30T01:06:42;9.00;51.30
48043;DHT22;33988;47.992;8.820;2024-01-30T01:09:11;8.90;51.30
48043;DHT22;33988;47.992;8.820;2024-01-30T01:11:39;8.90;51.30
48043;DHT22;33988;47.992;8.820;2024-01-30T01:14:06;8.90;51.40
48043;DHT22;33988;47.992;8.820;2024-01-30T01:16:33;8.90;51.40
48043;DHT22;33988;47.992;8.820;2024-01-30T01:19:04;8.80;51.40
48043;DHT22;33988;47.992;8.820;2024-01-30T01:21:31;8.80;51.40
48043;DHT22;33988;47.992;8.820;2024-01-30T01:24:00;8.80;51.40
48043;DHT22;33988;47.992;8.820;2024-01-30T01:26:27;8.80;51.40
48043;DHT22;33988;47.992;8.820;2024-01-30T01:28:54;8.80;51.40
48043;DHT22;33988;47.992;8.820;2024-01-30T01:31:23;8.80;51.40
48043;DHT22;33988;47.992;8.820;2024-01-30T01:33:51;8.80;51.50
48043;DHT22;33988;47.992;8.820;2024-01-30T01:36:19;8.80;51.50
48043;DHT22;33988;47.992;8.820;2024-01-30T01:38:45;8.80;51.50
48043;DHT22;33988;47.992;8.820;2024-01-30T01:41:12;8.80;52.10
48043;DHT22;33988;47.992;8.820;2024-01-30T01:43:39;8.70;51.40
48043;DHT22;33988;47.992;8.820;2024-01-30T01:46:07;8.70;51.40
48043;DHT22;33988;47.992;8.820;2024-01-30T01:48:35;8.70;51.40
48043;DHT22;33988;47.992;8.820;2024-01-30T01:51:02;8.70;51.40
48043;DHT22;33988;47.992;8.820;2024-01-30T01:53:30;8.70;51.50
48043;DHT22;33988;47.992;8.820;2024-01-30T01:55:57;8.70;51.50
48043;DHT22;33988;47.992;8.820;2024-01-30T01:58:27;8.70;51.50
48043;DHT22;33988;47.992;8.820;2024-01-30T02:00:58;8.60;51.40
48043;DHT22;33988;47.992;8.820;2024-01-30T02:03:28;8.70;51.50
48043;DHT22;33988;47.992;8.820;2024-01-30T02:05:56;8.60;51.40
48043;DHT22;33988;47.992;8.820;2024-01-30T02:08:26;8.70;51.50
48043;DHT22;33988;47.992;8.820;2024-01-30T02:10:55;8.60;51.50
48043;DHT22;33988;47.992;8.820;2024-01-30T02:13:24;8.60;51.50
48043;DHT22;33988;47.992;8.820;2024-01-30T02:15:51;8.40;51.60
48043;DHT22;33988;47.992;8.820;2024-01-30T02:18:19;8.50;51.50
48043;DHT22;33988;47.992;8.820;2024-01-30T02:20:53;8.60;51.50
48043;DHT22;33988;47.992;8.820;2024-01-30T02:23:20;8.50;51.40
48043;DHT22;33988;47.992;8.820;2024-01-30T02:25:49;8.50;51.40
48043;DHT22;33988;47.992;8.820;2024-01-30T02:28:19;8.50;51.50
48043;DHT22;33988;47.992;8.820;2024-01-30T02:30:47;8.50;51.50
48043;DHT22;33988;47.992;8.820;2024-01-30T02:33:16;8.50;51.50
48043;DHT22;33988;47.992;8.820;2024-01-30T02:35:43;8.50;51.50
48043;DHT22;33988;47.992;8.820;2024-01-30T02:38:13;8.50;51.50
48043;DHT22;33988;47.992;8.820;2024-01-30T02:40:42;8.50;51.50
48043;DHT22;33988;47.992;8.820;2024-01-30T02:43:11;8.40;51.50
48043;DHT22;33988;47.992;8.820;2024-01-30T02:45:38;8.40;51.50
48043;DHT22;33988;47.992;8.820;2024-01-30T02:48:05;8.40;51.60
48043;DHT22;33988;47.992;8.820;2024-01-30T02:50:32;8.40;51.50
48043;DHT22;33988;47.992;8.820;2024-01-30T02:52:59;8.40;51.50
48043;DHT22;33988;47.992;8.820;2024-01-30T02:55:28;8.40;51.50
48043;DHT22;33988;47.992;8.820;2024-01-30T02:57:55;8.40;51.50
48043;DHT22;33988;47.992;8.820;2024-01-30T03:00:23;8.40;51.50
48043;DHT22;33988;47.992;8.820;2024-01-30T03:02:50;8.40;51.50
48043;DHT22;33988;47.992;8.820;2024-01-30T03:05:17;8.30;51.50
48043;DHT22;33988;47.992;8.820;2024-01-30T03:07:46;8.30;51.50
48043;DHT22;33988;47.992;8.820;2024-01-30T03:10:13;8.30;51.50
48043;DHT22;33988;47.992;8.820;2024-01-30T03:12:45;8.30;51.50
48043;DHT22;33988;47.992;8.820;2024-01-30T03:15:17;8.30;51.50
48043;DHT22;33988;47.992;8.820;2024-01-30T03:17:44;8.30;51.50
48043;DHT22;33988;47.992;8.820;2024-01-30T03:20:11;8.30;51.50
48043;DHT22;33988;47.992;8.820;2024-01-30T03:22:40;8.30;51.50
48043;DHT22;33988;47.992;8.820;2024-01-30T03:25:07;8.30;51.50
48043;DHT22;33988;47.992;8.820;2024-01-30T03:27:34;8.30;51.50
48043;DHT22;33988;47.992;8.820;2024-01-30T03:30:01;8.30;51.50
48043;DHT22;33988;47.992;8.820;2024-01-30T03:32:30;8.30;51.60
48043;DHT22;33988;47.992;8.820;2024-01-30T03:34:57;8.30;51.60
48043;DHT22;33988;47.992;8.820;2024-01-30T03:37:29;8.30;51.60
48043;DHT22;33988;47.992;8.820;2024-01-30T03:39:58;8.20;51.60
48043;DHT22;33988;47.992;8.820;2024-01-30T03:42:26;8.10;51.80
48043;DHT22;33988;47.992;8.820;2024-01-30T03:44:56;8.20;51.70
48043;DHT22;33988;47.992;8.820;2024-01-30T03:47:25;8.20;51.70
48043;DHT22;33988;47.992;8.820;2024-01-30T03:49:55;8.20;51.70
48043;DHT22;33988;47.992;8.820;2024-01-30T03:52:24;8.30;51.80
48043;DHT22;33988;47.992;8.820;2024-01-30T03:54:51;8.20;51.70
48043;DHT22;33988;47.992;8.820;2024-01-30T03:57:18;8.20;51.70
48043;DHT22;33988;47.992;8.820;2024-01-30T03:59:48;8.20;51.70
48043;DHT22;33988;47.992;8.820;2024-01-30T04:02:15;8.20;51.80
48043;DHT22;33988;47.992;8.820;2024-01-30T04:04:42;8.20;51.80
48043;DHT22;33988;47.992;8.820;2024-01-30T04:07:12;8.20;51.80
48043;DHT22;33988;47.992;8.820;2024-01-30T04:09:39;8.20;51.70
48043;DHT22;33988;47.992;8.820;2024-01-30T04:12:08;8.20;51.70
48043;DHT22;33988;47.992;8.820;2024-01-30T04:14:35;8.10;51.80
48043;DHT22;33988;47.992;8.820;2024-01-30T04:17:04;8.20;51.70
48043;DHT22;33988;47.992;8.820;2024-01-30T04:19:37;8.20;51.70
48043;DHT22;33988;47.992;8.820;2024-01-30T04:22:05;8.10;51.70
48043;DHT22;33988;47.992;8.820;2024-01-30T04:24:32;8.00;51.80
48043;DHT22;33988;47.992;8.820;2024-01-30T04:27:01;8.10;51.80
48043;DHT22;33988;47.992;8.820;2024-01-30T04:29:30;8.10;51.70
48043;DHT22;33988;47.992;8.820;2024-01-30T04:31:59;8.10;51.70
48043;DHT22;33988;47.992;8.820;2024-01-30T04:34:26;8.10;51.70
48043;DHT22;33988;47.992;8.820;2024-01-30T04:36:55;8.10;51.70
48043;DHT22;33988;47.992;8.820;2024-01-30T04:39:27;8.00;51.70
48043;DHT22;33988;47.992;8.820;2024-01-30T04:41:54;8.10;51.70
48043;DHT22;33988;47.992;8.820;2024-01-30T04:44:24;8.00;51.70
48043;DHT22;33988;47.992;8.820;2024-01-30T04:46:53;8.00;51.70
48043;DHT22;33988;47.992;8.820;2024-01-30T04:49:20;8.00;51.70
48043;DHT22;33988;47.992;8.820;2024-01-30T04:51:47;8.00;51.70
48043;DHT22;33988;47.992;8.820;2024-01-30T04:54:14;8.00;51.70
48043;DHT22;33988;47.992;8.820;2024-01-30T04:56:41;8.00;51.70
48043;DHT22;33988;47.992;8.820;2024-01-30T04:59:08;8.00;51.70
48043;DHT22;33988;47.992;8.820;2024-01-30T05:01:37;8.00;51.70
48043;DHT22;33988;47.992;8.820;2024-01-30T05:04:07;8.00;51.70
48043;DHT22;33988;47.992;8.820;2024-01-30T05:06:35;7.90;52.30
48043;DHT22;33988;47.992;8.820;2024-01-30T05:09:02;7.90;51.70
48043;DHT22;33988;47.992;8.820;2024-01-30T05:11:37;7.90;51.70
48043;DHT22;33988;47.992;8.820;2024-01-30T05:14:07;7.90;51.70
48043;DHT22;33988;47.992;8.820;2024-01-30T05:16:37;7.90;51.80
48043;DHT22;33988;47.992;8.820;2024-01-30T05:19:04;7.90;51.70
48043;DHT22;33988;47.992;8.820;2024-01-30T05:21:31;7.90;51.80
48043;DHT22;33988;47.992;8.820;2024-01-30T05:23:58;7.90;51.80
48043;DHT22;33988;47.992;8.820;2024-01-30T05:26:28;7.90;51.70
48043;DHT22;33988;47.992;8.820;2024-01-30T05:28:55;7.90;51.80
48043;DHT22;33988;47.992;8.820;2024-01-30T05:31:22;7.90;51.70
48043;DHT22;33988;47.992;8.820;2024-01-30T05:33:52;7.90;51.70
48043;DHT22;33988;47.992;8.820;2024-01-30T05:36:22;7.90;51.80
48043;DHT22;33988;47.992;8.820;2024-01-30T05:38:54;7.90;51.80
48043;DHT22;33988;47.992;8.820;2024-01-30T05:41:21;7.90;51.80
48043;DHT22;33988;47.992;8.820;2024-01-30T05:43:48;7.90;51.80
48043;DHT22;33988;47.992;8.820;2024-01-30T05:46:15;7.90;51.80
48043;DHT22;33988;47.992;8.820;2024-01-30T05:48:42;7.90;51.80
48043;DHT22;33988;47.992;8.820;2024-01-30T05:51:08;7.90;51.80
48043;DHT22;33988;47.992;8.820;2024-01-30T05:53:36;7.80;51.70
48043;DHT22;33988;47.992;8.820;2024-01-30T05:56:03;7.80;51.70
48043;DHT22;33988;47.992;8.820;2024-01-30T05:58:30;7.80;51.80
48043;DHT22;33988;47.992;8.820;2024-01-30T06:01:07;7.80;51.70
48043;DHT22;33988;47.992;8.820;2024-01-30T06:03:36;7.80;51.70
48043;DHT22;33988;47.992;8.820;2024-01-30T06:06:06;7.80;51.80
48043;DHT22;33988;47.992;8.820;2024-01-30T06:08:35;7.80;51.70
48043;DHT22;33988;47.992;8.820;2024-01-30T06:11:04;7.60;51.90
48043;DHT22;33988;47.992;8.820;2024-01-30T06:13:31;7.80;51.90
48043;DHT22;33988;47.992;8.820;2024-01-30T06:15:58;7.80;51.80
48043;DHT22;33988;47.992;8.820;2024-01-30T06:18:25;7.70;51.70
48043;DHT22;33988;47.992;8.820;2024-01-30T06:20:57;7.70;51.70
48043;DHT22;33988;47.992;8.820;2024-01-30T06:23:24;7.70;51.80
48043;DHT22;33988;47.992;8.820;2024-01-30T06:25:53;7.70;51.80
48043;DHT22;33988;47.992;8.820;2024-01-30T06:28:23;7.70;51.80
48043;DHT22;33988;47.992;8.820;2024-01-30T06:30:50;7.70;51.80
48043;DHT22;33988;47.992;8.820;2024-01-30T06:33:17;7.70;51.80
48043;DHT22;33988;47.992;8.820;2024-01-30T06:35:44;7.70;51.80
48043;DHT22;33988;47.992;8.820;2024-01-30T06:38:12;7.70;51.80
48043;DHT22;33988;47.992;8.820;2024-01-30T06:40:39;7.70;51.80
48043;DHT22;33988;47.992;8.820;2024-01-30T06:43:06;7.70;51.80
48043;DHT22;33988;47.992;8.820;2024-01-30T06:45:34;7.60;51.80
48043;DHT22;33988;47.992;8.820;2024-01-30T06:48:01;7.70;51.80
48043;DHT22;33988;47.992;8.820;2024-01-30T06:50:28;7.70;52.50
48043;DHT22;33988;47.992;8.820;2024-01-30T06:52:55;7.60;51.80
48043;DHT22;33988;47.992;8.820;2024-01-30T06:55:22;7.70;51.80
48043;DHT22;33988;47.992;8.820;2024-01-30T06:57:56;7.60;51.80
48043;DHT22;33988;47.992;8.820;2024-01-30T07:00:46;7.60;51.80
48043;DHT22;33988;47.992;8.820;2024-01-30T07:03:13;7.70;51.90
48043;DHT22;33988;47.992;8.820;2024-01-30T07:05:43;7.60;51.90
48043;DHT22;33988;47.992;8.820;2024-01-30T07:08:10;7.60;51.80
48043;DHT22;33988;47.992;8.820;2024-01-30T07:10:44;7.60;51.90
48043;DHT22;33988;47.992;8.820;2024-01-30T07:13:13;7.60;51.90
48043;DHT22;33988;47.992;8.820;2024-01-30T07:15:43;7.60;51.90
48043;DHT22;33988;47.992;8.820;2024-01-30T07:18:10;7.60;51.90
48043;DHT22;33988;47.992;8.820;2024-01-30T07:20:37;7.60;51.90
48043;DHT22;33988;47.992;8.820;2024-01-30T07:23:08;7.60;51.90
48043;DHT22;33988;47.992;8.820;2024-01-30T07:25:38;7.60;52.00
48043;DHT22;33988;47.992;8.820;2024-01-30T07:28:05;7.60;52.00
48043;DHT22;33988;47.992;8.820;2024-01-30T07:30:36;7.60;52.00
48043;DHT22;33988;47.992;8.820;2024-01-30T07:33:06;7.60;52.10
48043;DHT22;33988;47.992;8.820;2024-01-30T07:35:36;7.60;52.10
48043;DHT22;33988;47.992;8.820;2024-01-30T07:38:03;7.60;52.10
48043;DHT22;33988;47.992;8.820;2024-01-30T07:40:30;7.70;52.20
48043;DHT22;33988;47.992;8.820;2024-01-30T07:43:00;7.70;52.20
48043;DHT22;33988;47.992;8.820;2024-01-30T07:45:30;7.70;52.20
48043;DHT22;33988;47.992;8.820;2024-01-30T07:48:00;7.70;52.20
48043;DHT22;33988;47.992;8.820;2024-01-30T07:50:27;7.70;52.30
48043;DHT22;33988;47.992;8.820;2024-01-30T07:52:59;7.70;52.30
48043;DHT22;33988;47.992;8.820;2024-01-30T07:55:26;7.80;52.40
48043;DHT22;33988;47.992;8.820;2024-01-30T07:57:58;7.60;52.40
48043;DHT22;33988;47.992;8.820;2024-01-30T08:00:27;7.80;52.40
48043;DHT22;33988;47.992;8.820;2024-01-30T08:02:56;7.80;52.40
48043;DHT22;33988;47.992;8.820;2024-01-30T08:05:23;7.80;52.40
48043;DHT22;33988;47.992;8.820;2024-01-30T08:07:53;7.80;52.40
48043;DHT22;33988;47.992;8.820;2024-01-30T08:10:20;7.90;52.40
48043;DHT22;33988;47.992;8.820;2024-01-30T08:12:48;7.90;52.40
48043;DHT22;33988;47.992;8.820;2024-01-30T08:15:15;7.90;52.50
48043;DHT22;33988;47.992;8.820;2024-01-30T08:17:42;7.90;52.50
48043;DHT22;33988;47.992;8.820;2024-01-30T08:20:12;7.90;52.50
48043;DHT22;33988;47.992;8.820;2024-01-30T08:22:43;8.00;52.60
48043;DHT22;33988;47.992;8.820;2024-01-30T08:25:14;8.00;52.70
48043;DHT22;33988;47.992;8.820;2024-01-30T08:27:44;8.00;52.80
48043;DHT22;33988;47.992;8.820;2024-01-30T08:30:14;8.10;53.10
48043;DHT22;33988;47.992;8.820;2024-01-30T08:32:43;8.20;53.50
48043;DHT22;33988;47.992;8.820;2024-01-30T08:35:10;8.30;53.80
48043;DHT22;33988;47.992;8.820;2024-01-30T08:37:42;8.40;54.20
48043;DHT22;33988;47.992;8.820;2024-01-30T08:40:12;8.60;54.60
48043;DHT22;33988;47.992;8.820;2024-01-30T08:42:44;8.80;55.00
48043;DHT22;33988;47.992;8.820;2024-01-30T08:45:11;9.10;55.20
48043;DHT22;33988;47.992;8.820;2024-01-30T08:47:38;9.30;55.30
48043;DHT22;33988;47.992;8.820;2024-01-30T08:50:07;9.60;55.90
48043;DHT22;33988;47.992;8.820;2024-01-30T08:52:35;9.90;55.00
48043;DHT22;33988;47.992;8.820;2024-01-30T08:55:04;10.20;54.70
48043;DHT22;33988;47.992;8.820;2024-01-30T08:57:38;10.50;54.40
48043;DHT22;33988;47.992;8.820;2024-01-30T09:00:06;10.80;53.90
48043;DHT22;33988;47.992;8.820;2024-01-30T09:02:35;11.00;53.40
48043;DHT22;33988;47.992;8.820;2024-01-30T09:05:03;11.20;52.90
48043;DHT22;33988;47.992;8.820;2024-01-30T09:07:33;11.30;52.40
48043;DHT22;33988;47.992;8.820;2024-01-30T09:10:00;11.50;52.10
48043;DHT22;33988;47.992;8.820;2024-01-30T09:12:27;11.50;51.70
48043;DHT22;33988;47.992;8.820;2024-01-30T09:14:56;11.60;51.40
48043;DHT22;33988;47.992;8.820;2024-01-30T09:17:26;11.60;51.20
48043;DHT22;33988;47.992;8.820;2024-01-30T09:19:55;11.60;51.00
48043;DHT22;33988;47.992;8.820;2024-01-30T09:22:25;11.50;50.80
48043;DHT22;33988;47.992;8.820;2024-01-30T09:24:54;11.50;50.70
48043;DHT22;33988;47.992;8.820;2024-01-30T09:27:26;11.40;50.60
48043;DHT22;33988;47.992;8.820;2024-01-30T09:29:53;11.40;50.60
48043;DHT22;33988;47.992;8.820;2024-01-30T09:32:23;11.40;50.60
48043;DHT22;33988;47.992;8.820;2024-01-30T09:34:50;11.30;50.60
48043;DHT22;33988;47.992;8.820;2024-01-30T09:37:17;11.30;50.70
48043;DHT22;33988;47.992;8.820;2024-01-30T09:39:47;11.20;50.70
48043;DHT22;33988;47.992;8.820;2024-01-30T09:42:33;11.20;50.70
48043;DHT22;33988;47.992;8.820;2024-01-30T09:45:03;11.10;50.80
48043;DHT22;33988;47.992;8.820;2024-01-30T09:47:42;11.10;50.90
48043;DHT22;33988;47.992;8.820;2024-01-30T09:50:11;11.10;51.00
48043;DHT22;33988;47.992;8.820;2024-01-30T09:52:40;11.00;51.00
48043;DHT22;33988;47.992;8.820;2024-01-30T09:55:07;11.00;51.10
48043;DHT22;33988;47.992;8.820;2024-01-30T09:57:37;10.90;51.20
48043;DHT22;33988;47.992;8.820;2024-01-30T10:00:10;10.90;51.30
48043;DHT22;33988;47.992;8.820;2024-01-30T10:02:40;10.90;51.40
48043;DHT22;33988;47.992;8.820;2024-01-30T10:05:08;10.90;51.50
48043;DHT22;33988;47.992;8.820;2024-01-30T10:07:35;10.90;51.50
48043;DHT22;33988;47.992;8.820;2024-01-30T10:10:04;10.90;51.60
48043;DHT22;33988;47.992;8.820;2024-01-30T10:12:33;10.90;51.70
48043;DHT22;33988;47.992;8.820;2024-01-30T10:15:00;11.00;51.80
48043;DHT22;33988;47.992;8.820;2024-01-30T10:17:29;10.90;51.90
48043;DHT22;33988;47.992;8.820;2024-01-30T10:20:00;10.90;51.90
48043;DHT22;33988;47.992;8.820;2024-01-30T10:22:36;10.90;51.90
48043;DHT22;33988;47.992;8.820;2024-01-30T10:25:04;10.90;51.90
48043;DHT22;33988;47.992;8.820;2024-01-30T10:27:34;11.00;52.00
48043;DHT22;33988;47.992;8.820;2024-01-30T10:30:01;11.00;52.10
48043;DHT22;33988;47.992;8.820;2024-01-30T10:32:31;11.10;52.10
48043;DHT22;33988;47.992;8.820;2024-01-30T10:35:00;11.10;52.20
48043;DHT22;33988;47.992;8.820;2024-01-30T10:37:32;11.10;52.20
48043;DHT22;33988;47.992;8.820;2024-01-30T10:40:03;11.10;52.20
48043;DHT22;33988;47.992;8.820;2024-01-30T10:42:36;11.10;52.30
48043;DHT22;33988;47.992;8.820;2024-01-30T10:45:08;11.10;52.30
48043;DHT22;33988;47.992;8.820;2024-01-30T10:47:49;11.20;52.40
48043;DHT22;33988;47.992;8.820;2024-01-30T10:50:17;11.20;52.50
48043;DHT22;33988;47.992;8.820;2024-01-30T10:52:46;11.20;52.50
48043;DHT22;33988;47.992;8.820;2024-01-30T10:55:14;11.30;52.50
48043;DHT22;33988;47.992;8.820;2024-01-30T10:57:46;11.30;52.60
48043;DHT22;33988;47.992;8.820;2024-01-30T11:00:25;11.30;52.60
48043;DHT22;33988;47.992;8.820;2024-01-30T11:02:55;11.40;52.70
48043;DHT22;33988;47.992;8.820;2024-01-30T11:05:27;11.40;52.70
48043;DHT22;33988;47.992;8.820;2024-01-30T11:08:09;11.50;52.80
48043;DHT22;33988;47.992;8.820;2024-01-30T11:10:47;11.50;52.80
48043;DHT22;33988;47.992;8.820;2024-01-30T11:13:15;11.50;53.00
48043;DHT22;33988;47.992;8.820;2024-01-30T11:15:47;11.60;53.00
48043;DHT22;33988;47.992;8.820;2024-01-30T11:18:29;11.60;53.20
48043;DHT22;33988;47.992;8.820;2024-01-30T11:21:00;11.60;53.30
48043;DHT22;33988;47.992;8.820;2024-01-30T11:23:28;11.70;53.30
48043;DHT22;33988;47.992;8.820;2024-01-30T11:25:58;11.50;53.50
48043;DHT22;33988;47.992;8.820;2024-01-30T11:28:38;11.70;53.50
48043;DHT22;33988;47.992;8.820;2024-01-30T11:31:05;11.80;53.60
48043;DHT22;33988;47.992;8.820;2024-01-30T11:33:40;11.90;53.60
48043;DHT22;33988;47.992;8.820;2024-01-30T11:36:09;11.90;53.70
48043;DHT22;33988;47.992;8.820;2024-01-30T11:38:40;11.80;53.80
48043;DHT22;33988;47.992;8.820;2024-01-30T11:41:11;12.00;53.80
48043;DHT22;33988;47.992;8.820;2024-01-30T11:43:40;12.10;53.80
48043;DHT22;33988;47.992;8.820;2024-01-30T11:46:07;12.20;53.90
48043;DHT22;33988;47.992;8.820;2024-01-30T11:48:36;12.30;53.90
48043;DHT22;33988;47.992;8.820;2024-01-30T11:51:07;12.30;53.80
48043;DHT22;33988;47.992;8.820;2024-01-30T11:53:36;12.40;53.80
48043;DHT22;33988;47.992;8.820;2024-01-30T11:56:06;12.40;53.80
48043;DHT22;33988;47.992;8.820;2024-01-30T11:58:33;12.50;53.80
48043;DHT22;33988;47.992;8.820;2024-01-30T12:01:00;12.60;53.80
48043;DHT22;33988;47.992;8.820;2024-01-30T12:03:28;12.60;53.80
48043;DHT22;33988;47.992;8.820;2024-01-30T12:05:56;12.70;53.80
48043;DHT22;33988;47.992;8.820;2024-01-30T12:08:27;12.80;53.80
48043;DHT22;33988;47.992;8.820;2024-01-30T12:10:59;12.90;54.50
48043;DHT22;33988;47.992;8.820;2024-01-30T12:13:32;12.90;53.70
48043;DHT22;33988;47.992;8.820;2024-01-30T12:16:02;13.00;53.70
48043;DHT22;33988;47.992;8.820;2024-01-30T12:18:29;13.00;53.50
48043;DHT22;33988;47.992;8.820;2024-01-30T12:20:58;13.10;53.50
48043;DHT22;33988;47.992;8.820;2024-01-30T12:23:29;13.20;53.40
48043;DHT22;33988;47.992;8.820;2024-01-30T12:25:57;13.00;53.30
48043;DHT22;33988;47.992;8.820;2024-01-30T12:28:25;13.30;53.40
48043;DHT22;33988;47.992;8.820;2024-01-30T12:30:56;13.40;53.30
48043;DHT22;33988;47.992;8.820;2024-01-30T12:33:28;13.40;53.10
48043;DHT22;33988;47.992;8.820;2024-01-30T12:36:00;13.50;53.80
48043;DHT22;33988;47.992;8.820;2024-01-30T12:38:34;13.50;53.10
48043;DHT22;33988;47.992;8.820;2024-01-30T12:41:01;13.60;53.00
48043;DHT22;33988;47.992;8.820;2024-01-30T12:43:29;13.70;53.00
48043;DHT22;33988;47.992;8.820;2024-01-30T12:46:07;13.70;52.90
48043;DHT22;33988;47.992;8.820;2024-01-30T12:48:37;13.80;53.40
48043;DHT22;33988;47.992;8.820;2024-01-30T12:51:06;13.90;52.60
48043;DHT22;33988;47.992;8.820;2024-01-30T12:53:36;13.90;52.50
48043;DHT22;33988;47.992;8.820;2024-01-30T12:56:07;14.00;52.40
48043;DHT22;33988;47.992;8.820;2024-01-30T12:58:34;14.00;52.20
48043;DHT22;33988;47.992;8.820;2024-01-30T13:01:01;14.10;52.10
48043;DHT22;33988;47.992;8.820;2024-01-30T13:03:29;14.10;51.90
48043;DHT22;33988;47.992;8.820;2024-01-30T13:05:56;14.20;51.80
48043;DHT22;33988;47.992;8.820;2024-01-30T13:08:23;14.30;51.80
48043;DHT22;33988;47.992;8.820;2024-01-30T13:10:51;14.30;51.70
48043;DHT22;33988;47.992;8.820;2024-01-30T13:13:18;14.30;51.50
48043;DHT22;33988;47.992;8.820;2024-01-30T13:15:50;14.40;51.40
48043;DHT22;33988;47.992;8.820;2024-01-30T13:18:19;14.40;51.10
48043;DHT22;33988;47.992;8.820;2024-01-30T13:20:47;14.50;50.90
48043;DHT22;33988;47.992;8.820;2024-01-30T13:23:14;14.50;50.80
48043;DHT22;33988;47.992;8.820;2024-01-30T13:25:43;14.60;50.60
48043;DHT22;33988;47.992;8.820;2024-01-30T13:28:10;14.70;50.50
48043;DHT22;33988;47.992;8.820;2024-01-30T13:30:41;14.70;50.30
48043;DHT22;33988;47.992;8.820;2024-01-30T13:33:11;14.70;50.10
48043;DHT22;33988;47.992;8.820;2024-01-30T13:35:40;14.80;50.00
48043;DHT22;33988;47.992;8.820;2024-01-30T13:38:07;14.80;49.80
48043;DHT22;33988;47.992;8.820;2024-01-30T13:40:36;14.90;49.60
48043;DHT22;33988;47.992;8.820;2024-01-30T13:43:06;14.90;49.40
48043;DHT22;33988;47.992;8.820;2024-01-30T13:45:33;15.00;49.30
48043;DHT22;33988;47.992;8.820;2024-01-30T13:48:00;15.00;49.10
48043;DHT22;33988;47.992;8.820;2024-01-30T13:50:27;15.10;48.90
48043;DHT22;33988;47.992;8.820;2024-01-30T13:52:54;15.10;48.80
48043;DHT22;33988;47.992;8.820;2024-01-30T13:55:23;15.20;48.70
48043;DHT22;33988;47.992;8.820;2024-01-30T13:57:50;15.20;48.60
48043;DHT22;33988;47.992;8.820;2024-01-30T14:00:18;15.30;48.40
48043;DHT22;33988;47.992;8.820;2024-01-30T14:02:48;15.40;48.40
48043;DHT22;33988;47.992;8.820;2024-01-30T14:05:15;15.40;48.40
48043;DHT22;33988;47.992;8.820;2024-01-30T14:07:43;15.40;48.10
48043;DHT22;33988;47.992;8.820;2024-01-30T14:10:17;15.50;48.00
48043;DHT22;33988;47.992;8.820;2024-01-30T14:12:47;15.50;47.90
48043;DHT22;33988;47.992;8.820;2024-01-30T14:15:16;15.60;47.70
48043;DHT22;33988;47.992;8.820;2024-01-30T14:17:55;15.70;47.70
48043;DHT22;33988;47.992;8.820;2024-01-30T14:20:22;15.70;47.60
48043;DHT22;33988;47.992;8.820;2024-01-30T14:22:50;15.80;47.50
48043;DHT22;33988;47.992;8.820;2024-01-30T14:25:17;15.80;47.50
48043;DHT22;33988;47.992;8.820;2024-01-30T14:27:44;15.80;47.30
48043;DHT22;33988;47.992;8.820;2024-01-30T14:30:11;15.80;47.10
48043;DHT22;33988;47.992;8.820;2024-01-30T14:32:38;15.90;47.10
48043;DHT22;33988;47.992;8.820;2024-01-30T14:35:11;15.90;47.10
48043;DHT22;33988;47.992;8.820;2024-01-30T14:37:38;15.90;47.00
48043;DHT22;33988;47.992;8.820;2024-01-30T14:40:06;15.90;46.80
48043;DHT22;33988;47.992;8.820;2024-01-30T14:42:37;15.90;46.70
48043;DHT22;33988;47.992;8.820;2024-01-30T14:45:06;15.90;46.60
48043;DHT22;33988;47.992;8.820;2024-01-30T14:47:34;15.90;46.60
48043;DHT22;33988;47.992;8.820;2024-01-30T14:50:03;15.90;46.50
48043;DHT22;33988;47.992;8.820;2024-01-30T14:52:34;15.90;46.40
48043;DHT22;33988;47.992;8.820;2024-01-30T14:55:02;15.90;46.50
48043;DHT22;33988;47.992;8.820;2024-01-30T14:57:29;15.90;46.40
48043;DHT22;33988;47.992;8.820;2024-01-30T14:59:56;15.90;46.40
48043;DHT22;33988;47.992;8.820;2024-01-30T15:02:23;15.90;46.40
48043;DHT22;33988;47.992;8.820;2024-01-30T15:04:50;15.80;46.40
48043;DHT22;33988;47.992;8.820;2024-01-30T15:07:19;15.80;46.40
48043;DHT22;33988;47.992;8.820;2024-01-30T15:09:58;15.80;46.40
48043;DHT22;33988;47.992;8.820;2024-01-30T15:12:28;15.80;46.40
48043;DHT22;33988;47.992;8.820;2024-01-30T15:14:55;15.80;46.50
48043;DHT22;33988;47.992;8.820;2024-01-30T15:17:22;15.80;46.60
48043;DHT22;33988;47.992;8.820;2024-01-30T15:19:54;15.70;46.60
48043;DHT22;33988;47.992;8.820;2024-01-30T15:22:21;15.70;46.70
48043;DHT22;33988;47.992;8.820;2024-01-30T15:24:51;15.70;46.80
48043;DHT22;33988;47.992;8.820;2024-01-30T15:27:22;15.60;46.80
48043;DHT22;33988;47.992;8.820;2024-01-30T15:29:55;15.60;46.90
48043;DHT22;33988;47.992;8.820;2024-01-30T15:32:22;15.60;47.00
48043;DHT22;33988;47.992;8.820;2024-01-30T15:34:48;15.60;47.10
48043;DHT22;33988;47.992;8.820;2024-01-30T15:37:15;15.50;47.10
48043;DHT22;33988;47.992;8.820;2024-01-30T15:39:46;15.50;47.10
48043;DHT22;33988;47.992;8.820;2024-01-30T15:42:12;15.50;47.20
48043;DHT22;33988;47.992;8.820;2024-01-30T15:44:40;15.40;47.20
48043;DHT22;33988;47.992;8.820;2024-01-30T15:47:07;15.40;47.20
48043;DHT22;33988;47.992;8.820;2024-01-30T15:49:34;15.30;47.20